sensor_id;sensor_type;location;lat;lon;timestamp;P1;durP1;ratioP1;P2;durP2;ratioP2
16460;SDS011;8341;42.048;24.650;2022-08-04T00:00:05;5.15;;;4.75;;
16460;SDS011;8341;42.048;24.650;2022-08-04T00:02:39;4.82;;;4.50;;
16460;SDS011;8341;42.048;24.650;2022-08-04T00:05:21;5.30;;;4.90;;
16460;SDS011;8341;42.048;24.650;2022-08-04T00:07:57;5.38;;;4.97;;
16460;SDS011;8341;42.048;24.650;2022-08-04T00:10:32;5.53;;;4.82;;
16460;SDS011;8341;42.048;24.650;2022-08-04T00:13:01;4.63;;;4.32;;
16460;SDS011;8341;42.048;24.650;2022-08-04T00:15:31;5.15;;;4.75;;
16460;SDS011;8341;42.048;24.650;2022-08-04T00:18:00;11.52;;;4.97;;
16460;SDS011;8341;42.048;24.650;2022-08-04T00:20:29;5.50;;;5.00;;
16460;SDS011;8341;42.048;24.650;2022-08-04T00:22:59;4.93;;;4.50;;
16460;SDS011;8341;42.048;24.650;2022-08-04T00:25:27;5.03;;;4.68;;
16460;SDS011;8341;42.048;24.650;2022-08-04T00:27:55;5.00;;;4.57;;
16460;SDS011;8341;42.048;24.650;2022-08-04T00:30:23;5.30;;;4.90;;
16460;SDS011;8341;42.048;24.650;2022-08-04T00:32:51;5.00;;;4.68;;
16460;SDS011;8341;42.048;24.650;2022-08-04T00:35:20;6.00;;;4.80;;
16460;SDS011;8341;42.048;24.650;2022-08-04T00:37:47;4.88;;;4.53;;
16460;SDS011;8341;42.048;24.650;2022-08-04T00:40:22;4.70;;;4.30;;
16460;SDS011;8341;42.048;24.650;2022-08-04T00:42:58;5.00;;;4.60;;
16460;SDS011;8341;42.048;24.650;2022-08-04T00:48:44;4.68;;;4.38;;
16460;SDS011;8341;42.048;24.650;2022-08-04T00:51:25;4.82;;;4.43;;
16460;SDS011;8341;42.048;24.650;2022-08-04T00:54:04;4.70;;;4.40;;
16460;SDS011;8341;42.048;24.650;2022-08-04T00:56:53;4.65;;;4.25;;
16460;SDS011;8341;42.048;24.650;2022-08-04T00:59:33;4.90;;;4.47;;
16460;SDS011;8341;42.048;24.650;2022-08-04T01:02:20;4.55;;;4.10;;
16460;SDS011;8341;42.048;24.650;2022-08-04T01:05:00;4.90;;;4.50;;
16460;SDS011;8341;42.048;24.650;2022-08-04T01:07:36;4.82;;;4.43;;
16460;SDS011;8341;42.048;24.650;2022-08-04T01:10:17;4.55;;;4.25;;
16460;SDS011;8341;42.048;24.650;2022-08-04T01:15:59;4.50;;;4.10;;
16460;SDS011;8341;42.048;24.650;2022-08-04T01:18:32;4.85;;;4.50;;
16460;SDS011;8341;42.048;24.650;2022-08-04T01:21:15;4.50;;;4.20;;
16460;SDS011;8341;42.048;24.650;2022-08-04T01:26:56;4.65;;;4.35;;
16460;SDS011;8341;42.048;24.650;2022-08-04T01:29:32;4.80;;;4.40;;
16460;SDS011;8341;42.048;24.650;2022-08-04T01:32:03;5.15;;;4.70;;
16460;SDS011;8341;42.048;24.650;2022-08-04T01:34:36;4.63;;;4.28;;
16460;SDS011;8341;42.048;24.650;2022-08-04T01:37:10;6.95;;;4.10;;
16460;SDS011;8341;42.048;24.650;2022-08-04T01:39:48;4.90;;;4.57;;
16460;SDS011;8341;42.048;24.650;2022-08-04T01:42:17;4.90;;;4.40;;
16460;SDS011;8341;42.048;24.650;2022-08-04T01:44:48;5.03;;;4.47;;
16460;SDS011;8341;42.048;24.650;2022-08-04T01:47:16;4.32;;;4.13;;
16460;SDS011;8341;42.048;24.650;2022-08-04T01:49:48;4.75;;;4.32;;
16460;SDS011;8341;42.048;24.650;2022-08-04T01:52:17;5.78;;;4.20;;
16460;SDS011;8341;42.048;24.650;2022-08-04T01:54:45;5.00;;;4.70;;
16460;SDS011;8341;42.048;24.650;2022-08-04T01:57:14;4.55;;;4.25;;
16460;SDS011;8341;42.048;24.650;2022-08-04T01:59:44;4.78;;;4.47;;
16460;SDS011;8341;42.048;24.650;2022-08-04T02:02:15;4.85;;;4.53;;
16460;SDS011;8341;42.048;24.650;2022-08-04T02:04:42;4.80;;;4.50;;
16460;SDS011;8341;42.048;24.650;2022-08-04T02:07:15;6.38;;;4.70;;
16460;SDS011;8341;42.048;24.650;2022-08-04T02:09:51;4.68;;;4.28;;
16460;SDS011;8341;42.048;24.650;2022-08-04T02:12:31;5.30;;;4.90;;
16460;SDS011;8341;42.048;24.650;2022-08-04T02:15:10;7.10;;;4.68;;
16460;SDS011;8341;42.048;24.650;2022-08-04T02:17:48;4.80;;;4.50;;
16460;SDS011;8341;42.048;24.650;2022-08-04T02:20:22;5.78;;;5.30;;
16460;SDS011;8341;42.048;24.650;2022-08-04T02:22:52;4.85;;;4.45;;
16460;SDS011;8341;42.048;24.650;2022-08-04T02:25:26;8.43;;;7.05;;
16460;SDS011;8341;42.048;24.650;2022-08-04T02:27:55;5.40;;;5.00;;
16460;SDS011;8341;42.048;24.650;2022-08-04T02:30:33;6.55;;;5.95;;
16460;SDS011;8341;42.048;24.650;2022-08-04T02:33:11;7.95;;;7.25;;
16460;SDS011;8341;42.048;24.650;2022-08-04T02:35:42;7.30;;;6.65;;
16460;SDS011;8341;42.048;24.650;2022-08-04T02:38:17;6.50;;;5.93;;
16460;SDS011;8341;42.048;24.650;2022-08-04T02:40:50;6.72;;;6.13;;
16460;SDS011;8341;42.048;24.650;2022-08-04T02:43:19;11.23;;;10.13;;
16460;SDS011;8341;42.048;24.650;2022-08-04T02:45:49;12.32;;;11.15;;
16460;SDS011;8341;42.048;24.650;2022-08-04T02:48:22;10.55;;;9.50;;
16460;SDS011;8341;42.048;24.650;2022-08-04T02:50:50;9.48;;;8.68;;
16460;SDS011;8341;42.048;24.650;2022-08-04T02:53:21;18.52;;;16.33;;
16460;SDS011;8341;42.048;24.650;2022-08-04T02:55:48;16.85;;;15.13;;
16460;SDS011;8341;42.048;24.650;2022-08-04T02:58:18;22.90;;;20.50;;
16460;SDS011;8341;42.048;24.650;2022-08-04T03:00:47;13.90;;;12.55;;
16460;SDS011;8341;42.048;24.650;2022-08-04T03:03:20;17.80;;;15.95;;
16460;SDS011;8341;42.048;24.650;2022-08-04T03:21:14;6.13;;;5.47;;
16460;SDS011;8341;42.048;24.650;2022-08-04T03:24:14;9.05;;;8.13;;
16460;SDS011;8341;42.048;24.650;2022-08-04T03:27:17;7.65;;;6.95;;
16460;SDS011;8341;42.048;24.650;2022-08-04T03:30:05;6.57;;;5.47;;
16460;SDS011;8341;42.048;24.650;2022-08-04T03:32:54;4.55;;;4.22;;
16460;SDS011;8341;42.048;24.650;2022-08-04T03:35:51;6.90;;;6.13;;
16460;SDS011;8341;42.048;24.650;2022-08-04T03:39:13;9.05;;;5.93;;
16460;SDS011;8341;42.048;24.650;2022-08-04T03:42:13;7.25;;;5.00;;
16460;SDS011;8341;42.048;24.650;2022-08-04T03:45:11;4.70;;;4.30;;
16460;SDS011;8341;42.048;24.650;2022-08-04T03:48:08;9.75;;;5.68;;
16460;SDS011;8341;42.048;24.650;2022-08-04T03:51:11;7.10;;;5.30;;
16460;SDS011;8341;42.048;24.650;2022-08-04T03:57:14;5.93;;;4.93;;
16460;SDS011;8341;42.048;24.650;2022-08-04T04:00:05;4.85;;;4.40;;
16460;SDS011;8341;42.048;24.650;2022-08-04T04:02:51;4.30;;;4.00;;
16460;SDS011;8341;42.048;24.650;2022-08-04T04:14:39;4.45;;;4.20;;
16460;SDS011;8341;42.048;24.650;2022-08-04T04:17:21;4.55;;;4.15;;
16460;SDS011;8341;42.048;24.650;2022-08-04T04:20:24;4.45;;;4.15;;
16460;SDS011;8341;42.048;24.650;2022-08-04T04:23:02;4.82;;;4.38;;
16460;SDS011;8341;42.048;24.650;2022-08-04T04:25:45;5.80;;;4.70;;
16460;SDS011;8341;42.048;24.650;2022-08-04T04:28:31;4.63;;;4.22;;
16460;SDS011;8341;42.048;24.650;2022-08-04T04:34:22;4.60;;;4.28;;
16460;SDS011;8341;42.048;24.650;2022-08-04T04:37:06;4.20;;;3.90;;
16460;SDS011;8341;42.048;24.650;2022-08-04T04:39:49;4.75;;;4.35;;
16460;SDS011;8341;42.048;24.650;2022-08-04T04:42:31;4.53;;;4.22;;
16460;SDS011;8341;42.048;24.650;2022-08-04T04:45:16;4.97;;;4.57;;
16460;SDS011;8341;42.048;24.650;2022-08-04T04:47:54;4.53;;;4.10;;
16460;SDS011;8341;42.048;24.650;2022-08-04T04:50:27;4.55;;;4.15;;
16460;SDS011;8341;42.048;24.650;2022-08-04T04:53:02;3.90;;;3.60;;
16460;SDS011;8341;42.048;24.650;2022-08-04T04:55:38;3.60;;;3.40;;
16460;SDS011;8341;42.048;24.650;2022-08-04T04:58:11;4.70;;;3.85;;
16460;SDS011;8341;42.048;24.650;2022-08-04T05:00:48;6.18;;;3.97;;
16460;SDS011;8341;42.048;24.650;2022-08-04T05:03:35;4.80;;;4.40;;
16460;SDS011;8341;42.048;24.650;2022-08-04T05:06:24;3.83;;;3.53;;
16460;SDS011;8341;42.048;24.650;2022-08-04T05:09:17;4.03;;;3.80;;
16460;SDS011;8341;42.048;24.650;2022-08-04T05:15:03;4.47;;;4.20;;
16460;SDS011;8341;42.048;24.650;2022-08-04T05:17:34;4.32;;;4.03;;
16460;SDS011;8341;42.048;24.650;2022-08-04T05:20:05;4.50;;;4.10;;
16460;SDS011;8341;42.048;24.650;2022-08-04T05:22:34;4.80;;;4.30;;
16460;SDS011;8341;42.048;24.650;2022-08-04T05:25:07;4.40;;;4.03;;
16460;SDS011;8341;42.048;24.650;2022-08-04T05:27:40;5.28;;;4.38;;
16460;SDS011;8341;42.048;24.650;2022-08-04T05:30:17;4.38;;;4.07;;
16460;SDS011;8341;42.048;24.650;2022-08-04T05:32:47;5.35;;;4.85;;
16460;SDS011;8341;42.048;24.650;2022-08-04T05:35:21;5.13;;;4.78;;
16460;SDS011;8341;42.048;24.650;2022-08-04T05:37:55;4.68;;;4.28;;
16460;SDS011;8341;42.048;24.650;2022-08-04T05:40:23;4.90;;;4.57;;
16460;SDS011;8341;42.048;24.650;2022-08-04T05:42:51;4.90;;;4.53;;
16460;SDS011;8341;42.048;24.650;2022-08-04T05:45:22;4.97;;;4.57;;
16460;SDS011;8341;42.048;24.650;2022-08-04T05:47:50;8.07;;;5.28;;
16460;SDS011;8341;42.048;24.650;2022-08-04T05:50:19;6.93;;;5.45;;
16460;SDS011;8341;42.048;24.650;2022-08-04T05:52:46;8.27;;;5.72;;
16460;SDS011;8341;42.048;24.650;2022-08-04T05:55:16;5.47;;;5.07;;
16460;SDS011;8341;42.048;24.650;2022-08-04T05:57:44;5.97;;;5.47;;
16460;SDS011;8341;42.048;24.650;2022-08-04T06:00:12;7.38;;;6.00;;
16460;SDS011;8341;42.048;24.650;2022-08-04T06:02:43;7.03;;;5.65;;
16460;SDS011;8341;42.048;24.650;2022-08-04T06:05:13;5.88;;;5.38;;
16460;SDS011;8341;42.048;24.650;2022-08-04T06:07:41;6.35;;;5.28;;
16460;SDS011;8341;42.048;24.650;2022-08-04T06:10:09;4.85;;;4.45;;
16460;SDS011;8341;42.048;24.650;2022-08-04T06:12:38;4.60;;;4.20;;
16460;SDS011;8341;42.048;24.650;2022-08-04T06:15:10;5.35;;;4.78;;
16460;SDS011;8341;42.048;24.650;2022-08-04T06:17:41;4.88;;;4.28;;
16460;SDS011;8341;42.048;24.650;2022-08-04T06:20:14;8.82;;;4.75;;
16460;SDS011;8341;42.048;24.650;2022-08-04T06:22:43;4.88;;;4.32;;
16460;SDS011;8341;42.048;24.650;2022-08-04T06:25:14;4.97;;;4.47;;
16460;SDS011;8341;42.048;24.650;2022-08-04T06:27:45;4.72;;;4.43;;
16460;SDS011;8341;42.048;24.650;2022-08-04T06:30:14;4.57;;;4.20;;
16460;SDS011;8341;42.048;24.650;2022-08-04T06:32:44;6.35;;;4.47;;
16460;SDS011;8341;42.048;24.650;2022-08-04T06:35:19;4.30;;;3.90;;
16460;SDS011;8341;42.048;24.650;2022-08-04T06:37:47;4.57;;;4.18;;
16460;SDS011;8341;42.048;24.650;2022-08-04T06:40:17;6.03;;;4.18;;
16460;SDS011;8341;42.048;24.650;2022-08-04T06:42:45;4.40;;;4.10;;
16460;SDS011;8341;42.048;24.650;2022-08-04T06:45:14;4.82;;;4.50;;
16460;SDS011;8341;42.048;24.650;2022-08-04T06:47:44;4.80;;;4.50;;
16460;SDS011;8341;42.048;24.650;2022-08-04T06:50:13;4.75;;;4.45;;
16460;SDS011;8341;42.048;24.650;2022-08-04T06:52:43;4.60;;;4.15;;
16460;SDS011;8341;42.048;24.650;2022-08-04T06:55:11;5.22;;;4.80;;
16460;SDS011;8341;42.048;24.650;2022-08-04T06:57:39;5.35;;;4.75;;
16460;SDS011;8341;42.048;24.650;2022-08-04T07:00:08;7.68;;;5.60;;
16460;SDS011;8341;42.048;24.650;2022-08-04T07:02:38;5.78;;;5.22;;
16460;SDS011;8341;42.048;24.650;2022-08-04T07:05:10;5.72;;;5.22;;
16460;SDS011;8341;42.048;24.650;2022-08-04T07:07:38;5.68;;;5.07;;
16460;SDS011;8341;42.048;24.650;2022-08-04T07:10:06;5.55;;;5.15;;
16460;SDS011;8341;42.048;24.650;2022-08-04T07:12:35;5.80;;;5.30;;
16460;SDS011;8341;42.048;24.650;2022-08-04T07:15:03;5.32;;;4.80;;
16460;SDS011;8341;42.048;24.650;2022-08-04T07:17:31;5.53;;;5.00;;
16460;SDS011;8341;42.048;24.650;2022-08-04T07:20:00;6.22;;;4.75;;
16460;SDS011;8341;42.048;24.650;2022-08-04T07:22:29;7.22;;;5.43;;
16460;SDS011;8341;42.048;24.650;2022-08-04T07:24:57;5.53;;;5.03;;
16460;SDS011;8341;42.048;24.650;2022-08-04T07:27:25;5.80;;;5.30;;
16460;SDS011;8341;42.048;24.650;2022-08-04T07:29:52;5.45;;;4.80;;
16460;SDS011;8341;42.048;24.650;2022-08-04T07:32:20;5.97;;;5.47;;
16460;SDS011;8341;42.048;24.650;2022-08-04T07:34:48;6.00;;;5.40;;
16460;SDS011;8341;42.048;24.650;2022-08-04T07:37:16;5.60;;;5.20;;
16460;SDS011;8341;42.048;24.650;2022-08-04T07:39:45;6.78;;;5.10;;
16460;SDS011;8341;42.048;24.650;2022-08-04T07:42:12;11.18;;;5.60;;
16460;SDS011;8341;42.048;24.650;2022-08-04T07:44:43;5.93;;;5.20;;
16460;SDS011;8341;42.048;24.650;2022-08-04T07:47:10;6.35;;;5.80;;
16460;SDS011;8341;42.048;24.650;2022-08-04T07:49:38;6.75;;;5.80;;
16460;SDS011;8341;42.048;24.650;2022-08-04T07:52:06;6.60;;;5.28;;
16460;SDS011;8341;42.048;24.650;2022-08-04T07:54:34;6.65;;;5.93;;
16460;SDS011;8341;42.048;24.650;2022-08-04T07:57:03;6.93;;;5.60;;
16460;SDS011;8341;42.048;24.650;2022-08-04T07:59:30;6.05;;;5.50;;
16460;SDS011;8341;42.048;24.650;2022-08-04T08:01:58;6.47;;;5.10;;
16460;SDS011;8341;42.048;24.650;2022-08-04T08:04:26;5.95;;;5.07;;
16460;SDS011;8341;42.048;24.650;2022-08-04T08:06:54;4.97;;;4.60;;
16460;SDS011;8341;42.048;24.650;2022-08-04T08:09:22;7.28;;;5.00;;
16460;SDS011;8341;42.048;24.650;2022-08-04T08:11:50;7.40;;;5.10;;
16460;SDS011;8341;42.048;24.650;2022-08-04T08:14:20;58.28;;;7.05;;
16460;SDS011;8341;42.048;24.650;2022-08-04T08:16:47;5.78;;;5.28;;
16460;SDS011;8341;42.048;24.650;2022-08-04T08:19:14;6.40;;;5.10;;
16460;SDS011;8341;42.048;24.650;2022-08-04T08:21:44;5.70;;;4.95;;
16460;SDS011;8341;42.048;24.650;2022-08-04T08:24:13;43.85;;;5.82;;
16460;SDS011;8341;42.048;24.650;2022-08-04T08:26:40;5.25;;;4.22;;
16460;SDS011;8341;42.048;24.650;2022-08-04T08:29:07;4.68;;;4.25;;
16460;SDS011;8341;42.048;24.650;2022-08-04T08:31:36;4.40;;;4.00;;
16460;SDS011;8341;42.048;24.650;2022-08-04T08:34:03;5.55;;;4.20;;
16460;SDS011;8341;42.048;24.650;2022-08-04T08:36:33;4.13;;;3.72;;
16460;SDS011;8341;42.048;24.650;2022-08-04T08:39:04;4.00;;;3.70;;
16460;SDS011;8341;42.048;24.650;2022-08-04T08:47:46;3.47;;;3.22;;
16460;SDS011;8341;42.048;24.650;2022-08-04T08:50:31;3.83;;;3.25;;
16460;SDS011;8341;42.048;24.650;2022-08-04T08:56:22;3.70;;;3.40;;
16460;SDS011;8341;42.048;24.650;2022-08-04T08:59:00;4.40;;;3.33;;
16460;SDS011;8341;42.048;24.650;2022-08-04T09:01:48;3.40;;;3.10;;
16460;SDS011;8341;42.048;24.650;2022-08-04T09:04:34;3.65;;;3.30;;
16460;SDS011;8341;42.048;24.650;2022-08-04T09:07:20;3.33;;;3.03;;
16460;SDS011;8341;42.048;24.650;2022-08-04T09:10:08;4.38;;;2.70;;
16460;SDS011;8341;42.048;24.650;2022-08-04T09:12:44;3.63;;;3.00;;
16460;SDS011;8341;42.048;24.650;2022-08-04T09:15:18;3.03;;;2.90;;
16460;SDS011;8341;42.048;24.650;2022-08-04T09:17:54;4.25;;;3.40;;
16460;SDS011;8341;42.048;24.650;2022-08-04T09:20:30;6.40;;;2.95;;
16460;SDS011;8341;42.048;24.650;2022-08-04T09:23:06;3.25;;;3.05;;
16460;SDS011;8341;42.048;24.650;2022-08-04T09:25:40;3.08;;;2.78;;
16460;SDS011;8341;42.048;24.650;2022-08-04T09:28:15;3.67;;;3.38;;
16460;SDS011;8341;42.048;24.650;2022-08-04T09:30:50;24.98;;;4.35;;
16460;SDS011;8341;42.048;24.650;2022-08-04T09:33:26;2.67;;;2.47;;
16460;SDS011;8341;42.048;24.650;2022-08-04T09:36:03;3.30;;;3.00;;
16460;SDS011;8341;42.048;24.650;2022-08-04T09:38:40;3.63;;;3.08;;
16460;SDS011;8341;42.048;24.650;2022-08-04T09:41:15;3.03;;;2.80;;
16460;SDS011;8341;42.048;24.650;2022-08-04T09:43:57;2.70;;;2.50;;
16460;SDS011;8341;42.048;24.650;2022-08-04T09:46:35;4.38;;;2.67;;
16460;SDS011;8341;42.048;24.650;2022-08-04T09:49:09;2.70;;;2.60;;
16460;SDS011;8341;42.048;24.650;2022-08-04T09:51:55;4.47;;;2.90;;
16460;SDS011;8341;42.048;24.650;2022-08-04T09:54:32;2.85;;;2.70;;
16460;SDS011;8341;42.048;24.650;2022-08-04T09:57:12;3.90;;;2.80;;
16460;SDS011;8341;42.048;24.650;2022-08-04T09:59:52;3.03;;;2.83;;
16460;SDS011;8341;42.048;24.650;2022-08-04T10:02:23;4.63;;;2.75;;
16460;SDS011;8341;42.048;24.650;2022-08-04T10:04:56;3.40;;;2.60;;
16460;SDS011;8341;42.048;24.650;2022-08-04T10:07:43;3.05;;;2.78;;
16460;SDS011;8341;42.048;24.650;2022-08-04T10:10:19;3.00;;;2.80;;
16460;SDS011;8341;42.048;24.650;2022-08-04T10:13:07;3.63;;;2.78;;
16460;SDS011;8341;42.048;24.650;2022-08-04T10:15:45;2.90;;;2.30;;
16460;SDS011;8341;42.048;24.650;2022-08-04T10:18:30;2.92;;;2.40;;
16460;SDS011;8341;42.048;24.650;2022-08-04T10:21:07;2.60;;;2.40;;
16460;SDS011;8341;42.048;24.650;2022-08-04T10:23:47;2.85;;;2.47;;
16460;SDS011;8341;42.048;24.650;2022-08-04T10:26:26;2.60;;;2.40;;
16460;SDS011;8341;42.048;24.650;2022-08-04T10:29:00;3.25;;;2.60;;
16460;SDS011;8341;42.048;24.650;2022-08-04T10:31:32;2.90;;;2.70;;
16460;SDS011;8341;42.048;24.650;2022-08-04T10:34:04;6.65;;;2.58;;
16460;SDS011;8341;42.048;24.650;2022-08-04T10:36:39;2.58;;;2.33;;
16460;SDS011;8341;42.048;24.650;2022-08-04T10:39:24;2.50;;;2.30;;
16460;SDS011;8341;42.048;24.650;2022-08-04T10:42:01;2.92;;;2.72;;
16460;SDS011;8341;42.048;24.650;2022-08-04T10:44:36;2.85;;;2.33;;
16460;SDS011;8341;42.048;24.650;2022-08-04T10:47:15;2.42;;;2.20;;
16460;SDS011;8341;42.048;24.650;2022-08-04T10:49:46;2.85;;;2.65;;
16460;SDS011;8341;42.048;24.650;2022-08-04T10:52:21;4.50;;;2.78;;
16460;SDS011;8341;42.048;24.650;2022-08-04T10:54:59;2.65;;;2.45;;
16460;SDS011;8341;42.048;24.650;2022-08-04T10:57:33;2.40;;;2.30;;
16460;SDS011;8341;42.048;24.650;2022-08-04T11:00:03;2.60;;;2.40;;
16460;SDS011;8341;42.048;24.650;2022-08-04T11:02:35;2.83;;;2.60;;
16460;SDS011;8341;42.048;24.650;2022-08-04T11:05:11;2.20;;;2.10;;
16460;SDS011;8341;42.048;24.650;2022-08-04T11:07:46;2.80;;;2.60;;
16460;SDS011;8341;42.048;24.650;2022-08-04T11:10:19;2.50;;;2.30;;
16460;SDS011;8341;42.048;24.650;2022-08-04T11:12:51;2.30;;;2.20;;
16460;SDS011;8341;42.048;24.650;2022-08-04T11:15:24;3.80;;;2.17;;
16460;SDS011;8341;42.048;24.650;2022-08-04T11:18:00;2.65;;;2.45;;
16460;SDS011;8341;42.048;24.650;2022-08-04T11:20:34;2.72;;;2.47;;
16460;SDS011;8341;42.048;24.650;2022-08-04T11:23:05;2.97;;;2.28;;
16460;SDS011;8341;42.048;24.650;2022-08-04T11:25:39;2.38;;;2.20;;
16460;SDS011;8341;42.048;24.650;2022-08-04T11:28:16;2.10;;;2.00;;
16460;SDS011;8341;42.048;24.650;2022-08-04T11:30:50;2.50;;;2.35;;
16460;SDS011;8341;42.048;24.650;2022-08-04T11:33:21;2.30;;;2.20;;
16460;SDS011;8341;42.048;24.650;2022-08-04T11:35:59;3.90;;;2.35;;
16460;SDS011;8341;42.048;24.650;2022-08-04T11:38:32;3.60;;;2.25;;
16460;SDS011;8341;42.048;24.650;2022-08-04T11:41:06;4.32;;;2.40;;
16460;SDS011;8341;42.048;24.650;2022-08-04T11:43:39;3.15;;;2.95;;
16460;SDS011;8341;42.048;24.650;2022-08-04T11:46:11;2.75;;;2.55;;
16460;SDS011;8341;42.048;24.650;2022-08-04T11:48:45;2.42;;;2.33;;
16460;SDS011;8341;42.048;24.650;2022-08-04T11:51:18;7.78;;;3.03;;
16460;SDS011;8341;42.048;24.650;2022-08-04T11:53:47;2.88;;;2.38;;
16460;SDS011;8341;42.048;24.650;2022-08-04T11:56:17;3.95;;;2.50;;
16460;SDS011;8341;42.048;24.650;2022-08-04T11:58:44;3.17;;;2.53;;
16460;SDS011;8341;42.048;24.650;2022-08-04T12:01:14;2.90;;;2.30;;
16460;SDS011;8341;42.048;24.650;2022-08-04T12:03:53;4.28;;;2.80;;
16460;SDS011;8341;42.048;24.650;2022-08-04T12:06:29;3.13;;;2.50;;
16460;SDS011;8341;42.048;24.650;2022-08-04T12:09:04;2.60;;;2.45;;
16460;SDS011;8341;42.048;24.650;2022-08-04T12:11:48;2.72;;;2.47;;
16460;SDS011;8341;42.048;24.650;2022-08-04T12:14:25;2.40;;;2.30;;
16460;SDS011;8341;42.048;24.650;2022-08-04T12:16:58;2.97;;;2.50;;
16460;SDS011;8341;42.048;24.650;2022-08-04T12:19:28;3.00;;;2.78;;
16460;SDS011;8341;42.048;24.650;2022-08-04T12:21:58;2.90;;;2.70;;
16460;SDS011;8341;42.048;24.650;2022-08-04T12:24:32;2.63;;;2.47;;
16460;SDS011;8341;42.048;24.650;2022-08-04T12:27:06;5.05;;;2.60;;
16460;SDS011;8341;42.048;24.650;2022-08-04T12:29:39;3.05;;;2.72;;
16460;SDS011;8341;42.048;24.650;2022-08-04T12:32:16;2.60;;;2.40;;
16460;SDS011;8341;42.048;24.650;2022-08-04T12:34:48;2.58;;;2.38;;
16460;SDS011;8341;42.048;24.650;2022-08-04T12:37:26;2.50;;;2.30;;
16460;SDS011;8341;42.048;24.650;2022-08-04T12:40:01;2.83;;;2.63;;
16460;SDS011;8341;42.048;24.650;2022-08-04T12:42:43;2.60;;;2.40;;
16460;SDS011;8341;42.048;24.650;2022-08-04T12:45:13;2.72;;;2.50;;
16460;SDS011;8341;42.048;24.650;2022-08-04T12:47:42;3.10;;;2.80;;
16460;SDS011;8341;42.048;24.650;2022-08-04T12:50:13;3.03;;;2.55;;
16460;SDS011;8341;42.048;24.650;2022-08-04T12:52:43;2.90;;;2.70;;
16460;SDS011;8341;42.048;24.650;2022-08-04T12:55:13;3.00;;;2.80;;
16460;SDS011;8341;42.048;24.650;2022-08-04T12:57:43;2.95;;;2.75;;
16460;SDS011;8341;42.048;24.650;2022-08-04T13:00:13;3.45;;;3.10;;
16460;SDS011;8341;42.048;24.650;2022-08-04T13:02:49;2.85;;;2.65;;
16460;SDS011;8341;42.048;24.650;2022-08-04T13:05:18;3.20;;;2.42;;
16460;SDS011;8341;42.048;24.650;2022-08-04T13:07:49;2.88;;;2.60;;
16460;SDS011;8341;42.048;24.650;2022-08-04T13:10:19;2.80;;;2.40;;
16460;SDS011;8341;42.048;24.650;2022-08-04T13:12:52;3.17;;;2.63;;
16460;SDS011;8341;42.048;24.650;2022-08-04T13:15:21;2.53;;;2.42;;
16460;SDS011;8341;42.048;24.650;2022-08-04T13:17:52;3.05;;;2.50;;
16460;SDS011;8341;42.048;24.650;2022-08-04T13:20:25;2.78;;;2.60;;
16460;SDS011;8341;42.048;24.650;2022-08-04T13:25:41;2.83;;;2.53;;
16460;SDS011;8341;42.048;24.650;2022-08-04T13:28:13;3.00;;;2.70;;
16460;SDS011;8341;42.048;24.650;2022-08-04T13:30:45;3.95;;;2.78;;
16460;SDS011;8341;42.048;24.650;2022-08-04T13:33:13;4.25;;;2.55;;
16460;SDS011;8341;42.048;24.650;2022-08-04T13:35:42;4.78;;;4.35;;
16460;SDS011;8341;42.048;24.650;2022-08-04T13:38:11;3.10;;;2.72;;
16460;SDS011;8341;42.048;24.650;2022-08-04T13:40:40;2.70;;;2.50;;
16460;SDS011;8341;42.048;24.650;2022-08-04T13:43:08;3.05;;;2.38;;
16460;SDS011;8341;42.048;24.650;2022-08-04T13:45:40;2.95;;;2.72;;
16460;SDS011;8341;42.048;24.650;2022-08-04T13:48:07;3.33;;;2.80;;
16460;SDS011;8341;42.048;24.650;2022-08-04T13:50:36;4.30;;;2.60;;
16460;SDS011;8341;42.048;24.650;2022-08-04T13:53:10;2.70;;;2.50;;
16460;SDS011;8341;42.048;24.650;2022-08-04T13:55:37;3.05;;;2.63;;
16460;SDS011;8341;42.048;24.650;2022-08-04T13:58:07;2.50;;;2.40;;
16460;SDS011;8341;42.048;24.650;2022-08-04T14:00:43;3.15;;;2.67;;
16460;SDS011;8341;42.048;24.650;2022-08-04T14:03:13;2.75;;;2.50;;
16460;SDS011;8341;42.048;24.650;2022-08-04T14:08:50;3.67;;;3.13;;
16460;SDS011;8341;42.048;24.650;2022-08-04T14:11:20;4.97;;;3.20;;
16460;SDS011;8341;42.048;24.650;2022-08-04T14:13:56;3.22;;;2.97;;
16460;SDS011;8341;42.048;24.650;2022-08-04T14:16:25;3.00;;;2.50;;
16460;SDS011;8341;42.048;24.650;2022-08-04T14:18:57;3.05;;;2.85;;
16460;SDS011;8341;42.048;24.650;2022-08-04T14:21:25;3.80;;;3.20;;
16460;SDS011;8341;42.048;24.650;2022-08-04T14:23:53;3.75;;;2.88;;
16460;SDS011;8341;42.048;24.650;2022-08-04T14:26:22;8.77;;;3.03;;
16460;SDS011;8341;42.048;24.650;2022-08-04T14:28:52;3.67;;;3.25;;
16460;SDS011;8341;42.048;24.650;2022-08-04T14:31:22;2.75;;;2.55;;
16460;SDS011;8341;42.048;24.650;2022-08-04T14:33:53;3.33;;;2.83;;
16460;SDS011;8341;42.048;24.650;2022-08-04T14:36:20;4.55;;;2.83;;
16460;SDS011;8341;42.048;24.650;2022-08-04T14:38:53;4.78;;;2.97;;
16460;SDS011;8341;42.048;24.650;2022-08-04T14:41:22;3.03;;;2.80;;
16460;SDS011;8341;42.048;24.650;2022-08-04T14:43:51;3.33;;;3.00;;
16460;SDS011;8341;42.048;24.650;2022-08-04T14:46:20;3.25;;;2.90;;
16460;SDS011;8341;42.048;24.650;2022-08-04T14:51:44;3.10;;;2.88;;
16460;SDS011;8341;42.048;24.650;2022-08-04T14:54:12;4.88;;;3.80;;
16460;SDS011;8341;42.048;24.650;2022-08-04T14:56:41;3.00;;;2.80;;
16460;SDS011;8341;42.048;24.650;2022-08-04T14:59:17;2.55;;;2.33;;
16460;SDS011;8341;42.048;24.650;2022-08-04T15:01:45;3.33;;;2.45;;
16460;SDS011;8341;42.048;24.650;2022-08-04T15:04:14;2.78;;;2.58;;
16460;SDS011;8341;42.048;24.650;2022-08-04T15:06:43;4.80;;;2.80;;
16460;SDS011;8341;42.048;24.650;2022-08-04T15:09:12;3.58;;;3.28;;
16460;SDS011;8341;42.048;24.650;2022-08-04T15:11:40;3.05;;;2.95;;
16460;SDS011;8341;42.048;24.650;2022-08-04T15:14:07;8.48;;;6.60;;
16460;SDS011;8341;42.048;24.650;2022-08-04T15:16:34;6.20;;;3.33;;
16460;SDS011;8341;42.048;24.650;2022-08-04T15:19:01;3.33;;;3.00;;
16460;SDS011;8341;42.048;24.650;2022-08-04T15:21:29;4.18;;;3.88;;
16460;SDS011;8341;42.048;24.650;2022-08-04T15:23:57;4.88;;;3.55;;
16460;SDS011;8341;42.048;24.650;2022-08-04T15:26:26;3.10;;;2.80;;
16460;SDS011;8341;42.048;24.650;2022-08-04T15:28:59;3.03;;;2.90;;
16460;SDS011;8341;42.048;24.650;2022-08-04T15:31:34;7.43;;;4.88;;
16460;SDS011;8341;42.048;24.650;2022-08-04T15:34:04;5.57;;;5.07;;
16460;SDS011;8341;42.048;24.650;2022-08-04T15:36:37;5.38;;;4.50;;
16460;SDS011;8341;42.048;24.650;2022-08-04T15:39:18;6.35;;;3.92;;
16460;SDS011;8341;42.048;24.650;2022-08-04T15:41:55;3.53;;;3.33;;
16460;SDS011;8341;42.048;24.650;2022-08-04T15:47:29;2.88;;;2.70;;
16460;SDS011;8341;42.048;24.650;2022-08-04T15:50:05;2.83;;;2.63;;
16460;SDS011;8341;42.048;24.650;2022-08-04T15:55:33;4.70;;;3.90;;
16460;SDS011;8341;42.048;24.650;2022-08-04T15:58:02;3.92;;;3.55;;
16460;SDS011;8341;42.048;24.650;2022-08-04T16:03:40;5.55;;;4.82;;
16460;SDS011;8341;42.048;24.650;2022-08-04T16:09:08;5.75;;;5.25;;
16460;SDS011;8341;42.048;24.650;2022-08-04T16:11:48;4.78;;;4.25;;
16460;SDS011;8341;42.048;24.650;2022-08-04T16:14:15;5.97;;;4.90;;
16460;SDS011;8341;42.048;24.650;2022-08-04T16:16:45;5.25;;;4.57;;
16460;SDS011;8341;42.048;24.650;2022-08-04T16:19:20;4.55;;;3.95;;
16460;SDS011;8341;42.048;24.650;2022-08-04T16:21:54;6.38;;;3.80;;
16460;SDS011;8341;42.048;24.650;2022-08-04T16:24:27;3.70;;;3.40;;
16460;SDS011;8341;42.048;24.650;2022-08-04T16:26:57;4.03;;;3.58;;
16460;SDS011;8341;42.048;24.650;2022-08-04T16:29:25;3.85;;;3.55;;
16460;SDS011;8341;42.048;24.650;2022-08-04T16:32:06;3.88;;;3.58;;
16460;SDS011;8341;42.048;24.650;2022-08-04T16:34:39;3.90;;;3.60;;
16460;SDS011;8341;42.048;24.650;2022-08-04T16:37:08;3.95;;;3.15;;
16460;SDS011;8341;42.048;24.650;2022-08-04T16:39:37;3.58;;;3.28;;